TimeCST,TemperatureF,Dew PointF,Humidity,Sea Level PressureIn,VisibilityMPH,Wind Direction,Wind SpeedMPH,Gust SpeedMPH,PrecipitationIn,Events,Conditions,WindDirDegrees,DateUTC
12:15 AM,17.6,15.8,93,29.96,7.0,Calm,Calm,-,N/A,,Clear,0,2014-02-08 06:15:00
12:35 AM,15.8,14.0,93,29.95,7.0,Calm,Calm,-,N/A,,Clear,0,2014-02-08 06:35:00
12:55 AM,15.8,14.0,93,29.95,4.0,Calm,Calm,-,N/A,,Clear,0,2014-02-08 06:55:00
1:15 AM,14.0,12.2,93,29.95,5.0,Calm,Calm,-,N/A,,Clear,0,2014-02-08 07:15:00
1:35 AM,14.0,14.0,100,29.95,4.0,Calm,Calm,-,N/A,,Clear,0,2014-02-08 07:35:00
1:55 AM,15.8,14.0,93,29.95,4.0,Calm,Calm,-,N/A,,Clear,0,2014-02-08 07:55:00
2:15 AM,14.0,12.2,93,29.94,4.0,Calm,Calm,-,N/A,,Clear,0,2014-02-08 08:15:00
2:35 AM,14.0,12.2,93,29.94,7.0,Calm,Calm,-,N/A,,Clear,0,2014-02-08 08:35:00
2:55 AM,12.2,10.4,92,29.94,7.0,Calm,Calm,-,N/A,,Clear,0,2014-02-08 08:55:00
3:15 AM,14.0,12.2,93,29.94,7.0,NNW,3.5,-,N/A,,Clear,330,2014-02-08 09:15:00
3:35 AM,14.0,12.2,93,29.94,7.0,North,4.6,-,N/A,,Clear,350,2014-02-08 09:35:00
3:55 AM,8.6,5.0,85,29.95,7.0,Calm,Calm,-,N/A,,Clear,0,2014-02-08 09:55:00
4:15 AM,12.2,10.4,92,29.94,5.0,Calm,Calm,-,N/A,,Clear,0,2014-02-08 10:15:00
4:35 AM,12.2,8.6,85,29.95,5.0,Calm,Calm,-,N/A,,Clear,0,2014-02-08 10:35:00
4:55 AM,8.6,5.0,85,29.95,10.0,West,3.5,-,N/A,,Clear,260,2014-02-08 10:55:00
5:15 AM,8.6,6.8,92,29.96,7.0,WNW,4.6,-,N/A,,Clear,300,2014-02-08 11:15:00
5:35 AM,10.4,6.8,85,29.97,10.0,WSW,4.6,-,N/A,,Clear,250,2014-02-08 11:35:00
5:55 AM,10.4,8.6,92,29.96,10.0,West,4.6,-,N/A,,Clear,280,2014-02-08 11:55:00
6:15 AM,8.6,5.0,85,29.96,10.0,Calm,Calm,-,N/A,,Clear,0,2014-02-08 12:15:00
6:35 AM,8.6,5.0,85,29.96,10.0,WSW,3.5,-,N/A,,Clear,240,2014-02-08 12:35:00
6:55 AM,8.6,5.0,85,29.96,10.0,West,4.6,-,N/A,,Clear,270,2014-02-08 12:55:00
7:15 AM,10.4,6.8,85,29.98,10.0,WSW,6.9,-,N/A,,Clear,240,2014-02-08 13:15:00
7:35 AM,8.6,6.8,92,29.97,10.0,Calm,Calm,-,N/A,,Clear,0,2014-02-08 13:35:00
7:55 AM,10.4,6.8,85,29.97,10.0,SW,4.6,-,N/A,,Clear,230,2014-02-08 13:55:00
8:15 AM,8.6,5.0,85,29.98,10.0,WSW,3.5,-,N/A,,Clear,240,2014-02-08 14:15:00
8:35 AM,12.2,10.4,92,29.97,10.0,Calm,Calm,-,N/A,,Clear,0,2014-02-08 14:35:00
8:55 AM,15.8,14.0,93,29.97,10.0,Calm,Calm,-,N/A,,Clear,0,2014-02-08 14:55:00
9:15 AM,17.6,15.8,93,29.97,10.0,Calm,Calm,-,N/A,,Clear,0,2014-02-08 15:15:00
9:35 AM,21.2,19.4,93,29.97,10.0,WNW,3.5,-,N/A,,Clear,290,2014-02-08 15:35:00
9:55 AM,19.4,17.6,93,29.97,10.0,West,3.5,-,N/A,,Clear,280,2014-02-08 15:55:00
10:15 AM,19.4,19.4,100,29.98,10.0,Calm,Calm,-,N/A,,Clear,0,2014-02-08 16:15:00
10:35 AM,23.0,23.0,100,29.99,10.0,Calm,Calm,-,N/A,,Clear,0,2014-02-08 16:35:00
10:55 AM,26.6,26.6,100,29.98,10.0,Calm,Calm,-,N/A,,Clear,0,2014-02-08 16:55:00
11:15 AM,32.0,23.0,69,29.98,10.0,South,3.5,-,N/A,,Clear,190,2014-02-08 17:15:00
11:35 AM,35.6,26.6,70,29.97,10.0,SW,6.9,-,N/A,,Clear,220,2014-02-08 17:35:00
11:55 AM,39.2,28.4,65,29.96,10.0,SW,4.6,-,N/A,,Clear,230,2014-02-08 17:55:00
12:15 PM,41.0,28.4,61,29.95,10.0,SW,4.6,-,N/A,,Clear,230,2014-02-08 18:15:00
12:35 PM,44.6,28.4,53,29.94,10.0,WSW,6.9,-,N/A,,Clear,240,2014-02-08 18:35:00
12:55 PM,44.6,30.2,57,29.94,10.0,West,4.6,-,N/A,,Clear,270,2014-02-08 18:55:00
1:15 PM,46.4,30.2,53,29.92,10.0,Calm,Calm,-,N/A,,Clear,0,2014-02-08 19:15:00
1:35 PM,48.2,30.2,50,29.91,10.0,South,3.5,-,N/A,,Clear,170,2014-02-08 19:35:00
1:55 PM,50.0,30.2,47,29.90,10.0,Calm,Calm,-,N/A,,Clear,0,2014-02-08 19:55:00
2:15 PM,51.8,30.2,44,29.89,10.0,Calm,Calm,-,N/A,,Clear,0,2014-02-08 20:15:00
2:35 PM,51.8,32.0,47,29.89,10.0,ENE,5.8,-,N/A,,Clear,60,2014-02-08 20:35:00
2:55 PM,48.2,32.0,54,29.88,10.0,ENE,10.4,-,N/A,,Clear,60,2014-02-08 20:55:00
3:15 PM,44.6,32.0,61,29.88,10.0,ENE,9.2,-,N/A,,Clear,70,2014-02-08 21:15:00
3:35 PM,44.6,32.0,61,29.88,10.0,ENE,9.2,-,N/A,,Clear,60,2014-02-08 21:35:00
3:55 PM,44.6,32.0,61,29.88,10.0,ENE,10.4,-,N/A,,Clear,70,2014-02-08 21:55:00
4:15 PM,44.6,32.0,61,29.88,10.0,NE,9.2,-,N/A,,Clear,40,2014-02-08 22:15:00
4:35 PM,44.6,32.0,61,29.89,10.0,East,8.1,-,N/A,,Clear,80,2014-02-08 22:35:00
4:55 PM,46.4,32.0,57,29.89,10.0,East,9.2,-,N/A,,Clear,80,2014-02-08 22:55:00
5:15 PM,44.6,33.8,66,29.89,10.0,ENE,6.9,-,N/A,,Clear,60,2014-02-08 23:15:00
5:35 PM,44.6,33.8,66,29.89,10.0,ENE,8.1,-,N/A,,Clear,60,2014-02-08 23:35:00
5:55 PM,42.8,33.8,70,29.90,10.0,ENE,6.9,-,N/A,,Clear,70,2014-02-08 23:55:00
6:15 PM,41.0,32.0,70,29.90,10.0,NNE,6.9,-,N/A,,Clear,30,2014-02-09 00:15:00
6:35 PM,35.6,30.2,81,29.91,10.0,NNE,8.1,-,N/A,,Clear,30,2014-02-09 00:35:00
6:55 PM,33.8,30.2,87,29.93,10.0,NNE,4.6,-,N/A,,Clear,30,2014-02-09 00:55:00
7:15 PM,32.0,30.2,93,29.93,10.0,NE,5.8,-,N/A,,Clear,40,2014-02-09 01:15:00
7:35 PM,32.0,30.2,93,29.94,10.0,East,4.6,-,N/A,,Clear,100,2014-02-09 01:35:00
7:55 PM,32.0,30.2,93,29.95,10.0,NNE,5.8,-,N/A,,Clear,30,2014-02-09 01:55:00
8:15 PM,32.0,28.4,87,29.94,10.0,Calm,Calm,-,N/A,,Clear,0,2014-02-09 02:15:00
8:35 PM,32.0,28.4,87,29.94,10.0,Calm,Calm,-,N/A,,Clear,0,2014-02-09 02:35:00
8:55 PM,30.2,28.4,93,29.94,10.0,Calm,Calm,-,N/A,,Clear,0,2014-02-09 02:55:00
9:15 PM,30.2,28.4,93,29.96,10.0,WSW,5.8,-,N/A,,Clear,250,2014-02-09 03:15:00
9:35 PM,28.4,28.4,100,29.95,7.0,WSW,3.5,-,N/A,,Clear,250,2014-02-09 03:35:00
9:55 PM,30.2,28.4,93,29.96,7.0,WSW,3.5,-,N/A,,Clear,250,2014-02-09 03:55:00
10:15 PM,28.4,28.4,100,29.96,7.0,Calm,Calm,-,N/A,,Clear,0,2014-02-09 04:15:00
10:35 PM,28.4,28.4,100,29.96,7.0,Calm,Calm,-,N/A,,Clear,0,2014-02-09 04:35:00
10:55 PM,30.2,28.4,93,29.96,10.0,Calm,Calm,-,N/A,,Clear,0,2014-02-09 04:55:00
11:15 PM,28.4,28.4,100,29.96,7.0,Calm,Calm,-,N/A,,Clear,0,2014-02-09 05:15:00
11:35 PM,30.2,28.4,93,29.96,7.0,Calm,Calm,-,N/A,,Clear,0,2014-02-09 05:35:00
11:55 PM,28.4,28.4,100,29.97,7.0,SW,5.8,-,N/A,,Clear,230,2014-02-09 05:55:00